Time;durP1;ratioP1;P1;durP2;ratioP2;P2;SDS_P1;SDS_P2;PMS_P1;PMS_P2;Temp;Humidity;BMP_temperature;BMP_pressure;BME280_temperature;BME280_humidity;BME280_pressure;Samples;Min_cycle;Max_cycle;Signal;HPM_P1;HPM_P2
2023/03/01 00:01:24;;;;;;;18.30;6.57;;;-0.10;99.90;;;;;;4955994;29;20054;-77
2023/03/01 00:03:51;;;;;;;16.15;5.68;;;-0.10;99.90;;;;;;4956350;28;20053;-77
2023/03/01 00:06:17;;;;;;;16.67;6.70;;;-0.20;99.90;;;;;;4956794;28;20035;-77
2023/03/01 00:08:43;;;;;;;;;;;-0.20;99.90;;;;;;4955679;28;20499;-78
2023/03/01 00:11:16;;;;;;;17.63;6.68;;;-0.10;99.90;;;;;;4956534;28;19922;-77
2023/03/01 00:13:43;;;;;;;15.85;6.63;;;-0.30;99.90;;;;;;4956172;28;20492;-77
2023/03/01 00:16:12;;;;;;;17.85;6.47;;;-0.30;99.90;;;;;;4956494;28;20133;-77
2023/03/01 00:18:38;;;;;;;17.25;7.90;;;0.00;99.90;;;;;;4956231;28;20051;-77
2023/03/01 00:21:04;;;;;;;19.15;7.75;;;-0.20;99.90;;;;;;4956289;28;20572;-77
2023/03/01 00:23:31;;;;;;;17.80;7.72;;;-0.40;99.90;;;;;;4955515;28;20051;-77
2023/03/01 00:25:57;;;;;;;19.90;7.60;;;0.60;99.90;;;;;;4955877;28;20050;-77
2023/03/01 00:28:23;;;;;;;18.65;8.40;;;-0.40;99.90;;;;;;4956373;28;20600;-77
2023/03/01 00:30:49;;;;;;;20.77;8.98;;;-0.40;99.90;;;;;;4956325;28;20141;-78
2023/03/01 00:33:14;;;;;;;17.85;7.63;;;-0.30;99.90;;;;;;4956171;28;20050;-78
2023/03/01 00:35:40;;;;;;;17.73;8.15;;;-0.30;99.90;;;;;;4955847;28;20608;-78
2023/03/01 00:38:06;;;;;;;22.00;8.43;;;-0.30;99.90;;;;;;4954980;28;20126;-78
2023/03/01 00:40:34;;;;;;;26.15;9.20;;;-0.40;99.90;;;;;;4956156;28;20075;-78
2023/03/01 00:43:01;;;;;;;23.10;8.30;;;-0.40;99.90;;;;;;4954629;29;20055;-77
2023/03/01 00:45:27;;;;;;;20.58;9.27;;;-0.40;99.90;;;;;;4955373;28;20047;-78
2023/03/01 00:47:54;;;;;;;22.15;8.73;;;-0.40;99.90;;;;;;4955371;28;20478;-78
2023/03/01 00:50:20;;;;;;;;;;;-0.40;99.90;;;;;;4956079;28;20105;-77
2023/03/01 00:52:45;;;;;;;24.08;8.88;;;-0.40;99.90;;;;;;4954231;29;19922;-78
2023/03/01 00:55:11;;;;;;;26.15;10.60;;;-0.40;99.90;;;;;;4954977;29;20488;-77
2023/03/01 00:57:38;;;;;;;20.67;8.70;;;-0.40;99.90;;;;;;4956258;28;20047;-77
2023/03/01 01:00:06;;;;;;;22.35;9.35;;;-0.40;99.90;;;;;;4955532;28;20047;-77
2023/03/01 01:02:35;;;;;;;19.63;8.65;;;-0.40;99.90;;;;;;4955247;28;20643;-77
2023/03/01 01:05:00;;;;;;;20.38;9.05;;;-0.40;99.90;;;;;;4954735;28;20043;-78
2023/03/01 01:07:26;;;;;;;22.23;9.57;;;-0.40;99.90;;;;;;4954735;28;20127;-78
2023/03/01 01:09:52;;;;;;;20.60;9.15;;;-0.50;99.90;;;;;;4954910;28;20051;-78
2023/03/01 01:12:17;;;;;;;17.30;8.38;;;-0.50;99.90;;;;;;4956045;28;20047;-77
2023/03/01 01:14:43;;;;;;;19.15;8.85;;;-0.50;99.90;;;;;;4956033;28;20039;-77
2023/03/01 01:17:09;;;;;;;21.52;9.40;;;-0.50;99.90;;;;;;4955148;28;20098;-78
2023/03/01 01:19:35;;;;;;;22.15;8.95;;;-0.50;99.90;;;;;;4955408;28;20051;-77
2023/03/01 01:22:00;;;;;;;24.15;8.40;;;-0.60;99.90;;;;;;4955043;28;20139;-78
2023/03/01 01:24:26;;;;;;;18.95;8.32;;;-0.60;99.90;;;;;;4954338;28;20083;-78
2023/03/01 01:26:52;;;;;;;15.93;7.35;;;-0.60;99.90;;;;;;4954999;28;20058;-78
2023/03/01 01:29:18;;;;;;;19.63;9.07;;;-0.60;99.90;;;;;;4955690;28;20082;-77
2023/03/01 01:31:44;;;;;;;23.30;9.88;;;-0.70;99.90;;;;;;4955627;28;20186;-77
2023/03/01 01:34:14;;;;;;;22.05;9.05;;;-0.70;99.90;;;;;;4955080;28;20050;-77
2023/03/01 01:36:40;;;;;;;18.85;8.73;;;-0.70;99.90;;;;;;4955719;28;20613;-78
2023/03/01 01:39:07;;;;;;;20.17;8.32;;;-0.70;99.90;;;;;;4954114;28;20139;-78
2023/03/01 01:41:33;;;;;;;;;;;-0.80;99.90;;;;;;4955835;28;20125;-78
2023/03/01 01:44:20;;;;;;;16.80;7.50;;;-0.80;99.90;;;;;;4955394;28;19926;-77
2023/03/01 01:47:07;;;;;;;19.70;7.88;;;-0.90;99.90;;;;;;4954825;28;20051;-77
2023/03/01 01:49:48;;;;;;;18.90;9.07;;;-0.90;99.90;;;;;;4954398;28;20059;-77
2023/03/01 01:52:20;;;;;;;21.63;8.93;;;-1.00;99.90;;;;;;4954244;28;20043;-78
2023/03/01 01:55:06;;;;;;;20.13;8.38;;;-1.00;99.90;;;;;;4953601;28;20393;-78
2023/03/01 01:57:36;;;;;;;16.48;7.97;;;-1.00;99.90;;;;;;4953972;28;20062;-77
2023/03/01 02:00:09;;;;;;;18.50;8.32;;;-1.10;99.90;;;;;;4954797;28;20051;-77
2023/03/01 02:02:36;;;;;;;17.40;8.02;;;-1.20;99.90;;;;;;4955012;28;20055;-77
2023/03/01 02:05:14;;;;;;;18.95;7.97;;;-1.20;99.90;;;;;;4954583;28;20040;-77
2023/03/01 02:07:42;;;;;;;18.90;9.23;;;-1.20;99.90;;;;;;4954169;28;20126;-77
2023/03/01 02:10:09;;;;;;;20.65;8.77;;;-1.20;99.90;;;;;;4954271;28;20043;-77
2023/03/01 02:12:36;;;;;;;17.00;8.40;;;-1.20;99.90;;;;;;4954847;28;20051;-77
2023/03/01 02:15:02;;;;;;;19.50;7.65;;;-1.20;99.90;;;;;;4953719;28;20043;-77
2023/03/01 02:17:29;;;;;;;24.17;9.27;;;-1.20;99.90;;;;;;4954593;28;20539;-77
2023/03/01 02:20:12;;;;;;;22.13;8.18;;;-1.20;99.90;;;;;;4953932;28;20051;-76
2023/03/01 02:22:39;;;;;;;20.27;9.18;;;-1.20;99.90;;;;;;4954318;28;20449;-77
2023/03/01 02:25:19;;;;;;;20.73;9.15;;;-1.20;99.90;;;;;;4953745;28;20057;-77
2023/03/01 02:28:05;;;;;;;22.35;8.40;;;-1.20;99.90;;;;;;4954500;28;20058;-77
2023/03/01 02:30:32;;;;;;;24.45;9.23;;;-1.10;99.90;;;;;;4954303;28;20055;-77
2023/03/01 02:33:04;;;;;;;20.55;9.38;;;-1.20;99.90;;;;;;4952174;29;20277;-78
2023/03/01 02:35:38;;;;;;;19.80;9.73;;;-1.20;99.90;;;;;;4954181;28;20457;-78
2023/03/01 02:38:08;;;;;;;21.20;8.65;;;-1.20;99.90;;;;;;4953042;28;20087;-78
2023/03/01 02:40:35;;;;;;;20.65;9.15;;;-1.10;99.90;;;;;;4954301;28;20043;-78
2023/03/01 02:43:04;;;;;;;22.80;9.15;;;-1.20;99.90;;;;;;4953950;28;20126;-77
2023/03/01 02:45:29;;;;;;;19.20;9.05;;;-1.20;99.90;;;;;;4954264;28;20086;-77
2023/03/01 02:47:56;;;;;;;20.90;9.38;;;-1.20;99.90;;;;;;4953944;28;20515;-78
2023/03/01 02:50:52;;;;;;;21.05;9.35;;;-1.10;99.90;;;;;;4953465;28;20505;-78
2023/03/01 02:53:59;;;;;;;21.45;9.13;;;-1.20;99.90;;;;;;4953004;28;20090;-77
2023/03/01 02:56:25;;;;;;;19.73;9.10;;;-1.20;99.90;;;;;;4952898;28;20094;-77
2023/03/01 02:58:52;;;;;;;26.23;9.60;;;-1.20;99.90;;;;;;4954066;28;20044;-78
2023/03/01 03:01:21;;;;;;;19.67;8.77;;;-1.20;99.90;;;;;;4953672;28;20047;-78
2023/03/01 03:03:46;;;;;;;18.77;8.43;;;-1.20;99.90;;;;;;4953427;28;20080;-77
2023/03/01 03:06:13;;;;;;;20.33;8.82;;;-1.30;99.90;;;;;;4953560;28;20047;-77
2023/03/01 03:08:38;;;;;;;;;;;-1.30;99.90;;;;;;4953299;28;20539;-77
2023/03/01 03:11:04;;;;;;;21.52;8.38;;;-1.30;99.90;;;;;;4952062;29;19926;-77
2023/03/01 03:13:30;;;;;;;19.10;8.27;;;-1.40;99.90;;;;;;4953883;28;20047;-78
2023/03/01 03:15:56;;;;;;;20.52;8.63;;;-1.40;99.90;;;;;;4953673;28;20138;-77
2023/03/01 03:18:25;;;;;;;25.98;9.32;;;-1.40;99.90;;;;;;4953384;28;20043;-77
2023/03/01 03:20:53;;;;;;;20.90;9.57;;;-1.40;99.90;;;;;;4952768;29;20077;-78
2023/03/01 03:23:22;;;;;;;21.65;7.95;;;-1.40;99.90;;;;;;4952543;28;20096;-78
2023/03/01 03:25:49;;;;;;;27.27;10.35;;;-1.20;99.90;;;;;;4952890;28;20058;-78
2023/03/01 03:28:15;;;;;;;20.15;8.32;;;-1.30;99.90;;;;;;4953288;28;20043;-78
2023/03/01 03:30:42;;;;;;;;;;;-1.50;99.90;;;;;;4954224;28;20097;-78
2023/03/01 03:33:08;;;;;;;20.45;8.35;;;-1.50;99.90;;;;;;4952814;28;19922;-78
2023/03/01 03:35:41;;;;;;;21.80;8.82;;;-1.60;99.90;;;;;;4953727;28;20071;-78
2023/03/01 03:38:15;;;;;;;19.50;9.02;;;-1.60;99.90;;;;;;4952363;28;20046;-78
2023/03/01 03:40:44;;;;;;;26.90;10.70;;;-1.60;99.90;;;;;;4953752;28;20047;-78
2023/03/01 03:43:15;;;;;;;23.63;9.27;;;-1.70;99.90;;;;;;4953254;28;20047;-77
2023/03/01 03:45:41;;;;;;;24.02;8.75;;;-1.70;99.90;;;;;;4953587;28;20048;-78
2023/03/01 03:48:07;;;;;;;;;;;-1.70;99.90;;;;;;4953426;28;20055;-77
2023/03/01 03:50:34;;;;;;;18.33;8.17;;;-1.80;99.90;;;;;;4953094;28;19922;-78
2023/03/01 03:53:06;;;;;;;20.83;9.00;;;-1.80;99.90;;;;;;4952468;28;20063;-78
2023/03/01 03:55:33;;;;;;;17.45;7.97;;;-1.90;99.90;;;;;;4952261;29;20047;-78
2023/03/01 03:58:06;;;;;;;19.85;8.93;;;-1.90;99.90;;;;;;4953379;28;20057;-78
2023/03/01 04:00:43;;;;;;;21.77;9.63;;;-1.90;99.90;;;;;;4953599;28;20047;-78
2023/03/01 04:03:09;;;;;;;21.13;8.57;;;-1.90;99.90;;;;;;4951835;29;20065;-78
2023/03/01 04:05:36;;;;;;;19.83;8.82;;;-2.00;99.90;;;;;;4953358;28;20035;-77
2023/03/01 04:08:02;;;;;;;27.23;8.48;;;-2.00;99.90;;;;;;4952345;28;20130;-78
2023/03/01 04:10:33;;;;;;;;;;;-2.00;99.90;;;;;;4953740;28;20047;-78
2023/03/01 04:12:59;;;;;;;21.17;8.43;;;-2.00;99.90;;;;;;4952193;29;19922;-78
2023/03/01 04:15:26;;;;;;;17.83;7.97;;;-2.10;99.90;;;;;;4951222;29;20039;-78
2023/03/01 04:17:53;;;;;;;20.13;8.70;;;-1.60;99.90;;;;;;4952772;28;20051;-78
2023/03/01 04:20:25;;;;;;;21.48;8.95;;;-2.10;99.90;;;;;;4952447;28;20055;-78
2023/03/01 04:23:16;;;;;;;20.45;8.45;;;-2.00;99.90;;;;;;4951115;29;20471;-78
2023/03/01 04:26:01;;;;;;;18.27;8.52;;;-2.00;99.90;;;;;;4953128;28;20043;-78
2023/03/01 04:28:35;;;;;;;20.50;8.65;;;-2.00;99.90;;;;;;4952554;28;20063;-78
2023/03/01 04:31:13;;;;;;;20.45;8.85;;;-2.00;99.90;;;;;;4953284;28;20065;-78
2023/03/01 04:33:41;;;;;;;21.05;8.30;;;-2.00;99.90;;;;;;4936142;29;20055;-78
2023/03/01 04:36:08;;;;;;;22.63;9.48;;;-2.00;99.90;;;;;;4952750;28;20039;-78
2023/03/01 04:38:36;;;;;;;19.67;8.50;;;-2.00;99.90;;;;;;4954621;28;20055;-78
2023/03/01 04:41:08;;;;;;;21.33;8.57;;;-2.00;99.90;;;;;;4939714;29;20555;-78
2023/03/01 04:43:34;;;;;;;20.48;9.30;;;-2.10;99.90;;;;;;4956585;28;20043;-78
2023/03/01 04:46:02;;;;;;;24.60;8.80;;;-2.10;99.90;;;;;;4955295;29;20043;-78
2023/03/01 04:48:29;;;;;;;23.67;9.45;;;-2.20;99.90;;;;;;4955943;28;20082;-78
2023/03/01 04:50:55;;;;;;;19.15;8.65;;;-2.20;99.90;;;;;;4956332;28;20062;-78
2023/03/01 04:53:21;;;;;;;23.10;8.70;;;-2.20;99.90;;;;;;4955203;28;20055;-77
2023/03/01 04:55:47;;;;;;;22.42;9.07;;;-2.30;99.90;;;;;;4956654;28;20085;-78
2023/03/01 04:58:12;;;;;;;25.52;8.93;;;-2.30;99.90;;;;;;4955656;28;20051;-78
2023/03/01 05:00:38;;;;;;;23.33;9.95;;;-2.30;99.90;;;;;;4954912;29;20489;-78
2023/03/01 05:03:04;;;;;;;22.73;10.05;;;-2.30;99.90;;;;;;4955966;28;20070;-78
2023/03/01 05:05:35;;;;;;;25.42;9.57;;;-2.30;99.90;;;;;;4955616;29;20053;-78
2023/03/01 05:08:07;;;;;;;23.95;9.85;;;-2.40;99.90;;;;;;4955211;28;20047;-78
2023/03/01 05:10:35;;;;;;;20.80;9.55;;;-2.40;99.90;;;;;;4956167;28;20079;-78
2023/03/01 05:13:02;;;;;;;23.88;9.52;;;-2.40;99.90;;;;;;4956090;28;20097;-78
2023/03/01 05:15:30;;;;;;;26.38;9.57;;;-2.40;99.90;;;;;;4955643;28;20472;-78
2023/03/01 05:17:59;;;;;;;24.63;10.02;;;-2.40;99.90;;;;;;4955401;28;20485;-77
2023/03/01 05:20:26;;;;;;;27.90;10.00;;;-2.40;99.90;;;;;;4955164;29;20083;-77
2023/03/01 05:22:55;;;;;;;21.88;8.63;;;-2.40;99.90;;;;;;4955386;29;20130;-78
2023/03/01 05:25:22;;;;;;;20.55;9.77;;;-2.40;99.90;;;;;;4954920;28;20055;-78
2023/03/01 05:27:48;;;;;;;19.42;8.82;;;-2.40;99.90;;;;;;4955681;28;20047;-78
2023/03/01 05:30:14;;;;;;;20.95;7.93;;;-2.10;99.90;;;;;;4955419;28;20385;-78
2023/03/01 05:32:46;;;;;;;20.98;7.57;;;-2.30;99.90;;;;;;4955548;28;20086;-78
2023/03/01 05:35:14;;;;;;;20.23;8.30;;;-2.40;99.90;;;;;;4955206;28;20403;-78
2023/03/01 05:37:44;;;;;;;24.23;9.18;;;-2.20;99.90;;;;;;4955157;28;20054;-78
2023/03/01 05:40:15;;;;;;;22.08;9.30;;;-2.40;99.90;;;;;;4954771;28;20043;-77
2023/03/01 05:42:49;;;;;;;20.35;8.60;;;-2.40;99.90;;;;;;4955273;28;20057;-78
2023/03/01 05:45:17;;;;;;;27.63;10.30;;;-2.50;99.90;;;;;;4954906;28;20089;-78
2023/03/01 05:47:44;;;;;;;23.02;9.10;;;-2.60;99.90;;;;;;4954811;28;20055;-78
2023/03/01 05:50:21;;;;;;;21.88;9.55;;;-2.60;99.90;;;;;;4954664;28;20059;-78
2023/03/01 05:52:49;;;;;;;25.08;8.40;;;-2.60;99.90;;;;;;4954822;28;20090;-77
2023/03/01 05:55:20;;;;;;;25.63;9.88;;;-2.60;99.90;;;;;;4954451;28;20130;-78
2023/03/01 05:57:46;;;;;;;20.75;8.75;;;-2.70;99.90;;;;;;4955119;28;20094;-78
2023/03/01 06:00:14;;;;;;;21.70;9.18;;;-2.70;99.90;;;;;;4954712;28;20083;-77
2023/03/01 06:02:40;;;;;;;22.75;9.18;;;-2.70;99.90;;;;;;4954684;28;20047;-78
2023/03/01 06:05:06;;;;;;;;;;;-2.70;99.90;;;;;;4955259;28;20134;-78
2023/03/01 06:07:32;;;;;;;25.70;9.83;;;-2.80;99.90;;;;;;4952880;29;19918;-78
2023/03/01 06:09:58;;;;;;;22.50;10.27;;;-2.50;99.90;;;;;;4954289;28;20102;-78
2023/03/01 06:12:23;;;;;;;24.38;9.88;;;-2.80;99.90;;;;;;4953937;28;20134;-78
2023/03/01 06:14:49;;;;;;;27.85;9.98;;;-2.80;99.90;;;;;;4954696;28;20043;-78
2023/03/01 06:17:15;;;;;;;22.13;9.02;;;-2.80;99.90;;;;;;4953297;29;20058;-78
2023/03/01 06:19:41;;;;;;;30.35;10.02;;;-2.80;99.90;;;;;;4954514;28;20051;-78
2023/03/01 06:22:08;;;;;;;18.80;9.20;;;-2.80;99.90;;;;;;4954241;29;20074;-78
2023/03/01 06:24:34;;;;;;;23.67;10.07;;;-2.70;99.90;;;;;;4953410;28;20051;-78
2023/03/01 06:26:59;;;;;;;26.55;10.90;;;-2.80;99.90;;;;;;4954388;28;20134;-78
2023/03/01 06:29:25;;;;;;;25.75;10.43;;;-2.80;99.90;;;;;;4954070;28;20496;-78
2023/03/01 06:31:51;;;;;;;21.60;10.05;;;-2.80;99.90;;;;;;4954406;28;20130;-78
2023/03/01 06:34:17;;;;;;;30.40;9.63;;;-2.80;99.90;;;;;;4953516;28;20055;-78
2023/03/01 06:36:42;;;;;;;26.80;10.00;;;-2.80;99.90;;;;;;4954150;28;20051;-78
2023/03/01 06:39:08;;;;;;;23.45;9.85;;;-2.80;99.90;;;;;;4953033;29;20051;-78
2023/03/01 06:41:34;;;;;;;;;;;-2.80;99.90;;;;;;4952586;29;20393;-78
2023/03/01 06:44:00;;;;;;;23.63;9.30;;;-2.80;99.90;;;;;;4954338;28;19929;-78
2023/03/01 06:46:26;;;;;;;23.30;9.48;;;-2.80;99.90;;;;;;4952429;29;20047;-78
2023/03/01 06:48:51;;;;;;;22.73;9.52;;;-2.80;99.90;;;;;;4953810;28;20485;-77
2023/03/01 06:51:17;;;;;;;26.55;10.23;;;-2.70;99.90;;;;;;4953845;28;20150;-78
2023/03/01 06:53:43;;;;;;;23.65;10.23;;;-2.70;99.90;;;;;;4953295;29;20061;-78
2023/03/01 06:56:08;;;;;;;27.65;10.55;;;-2.70;99.90;;;;;;4953971;28;20085;-78
2023/03/01 06:58:34;;;;;;;23.65;10.05;;;-2.60;99.90;;;;;;4953870;29;20043;-78
2023/03/01 07:01:00;;;;;;;24.60;10.02;;;-2.60;99.90;;;;;;4954032;28;20051;-78
2023/03/01 07:03:25;;;;;;;22.52;10.48;;;-2.60;99.90;;;;;;4953330;29;20129;-78
2023/03/01 07:05:52;;;;;;;30.90;10.48;;;-2.50;99.90;;;;;;4953778;28;20043;-78
2023/03/01 07:08:18;;;;;;;25.27;11.45;;;-2.40;99.90;;;;;;4952430;28;20090;-78
2023/03/01 07:10:44;;;;;;;30.33;10.50;;;-2.40;99.90;;;;;;4953831;28;20074;-78
2023/03/01 07:13:10;;;;;;;29.77;10.10;;;-2.30;99.90;;;;;;4953895;28;20039;-78
2023/03/01 07:15:36;;;;;;;26.92;10.63;;;-2.20;99.90;;;;;;4952572;29;20183;-78
2023/03/01 07:18:01;;;;;;;31.40;9.85;;;-2.20;99.90;;;;;;4953700;28;20047;-78
2023/03/01 07:20:27;;;;;;;21.90;9.98;;;-2.10;99.90;;;;;;4953427;28;20047;-78
2023/03/01 07:22:54;;;;;;;24.40;11.15;;;-2.10;99.90;;;;;;4953311;28;20124;-78
2023/03/01 07:25:20;;;;;;;22.05;10.18;;;-2.00;99.90;;;;;;4952765;28;20039;-78
2023/03/01 07:27:53;;;;;;;25.90;10.70;;;-2.00;99.90;;;;;;4953673;28;20481;-77
2023/03/01 07:30:19;;;;;;;26.55;11.32;;;-1.90;99.90;;;;;;4952948;29;20059;-74
2023/03/01 07:32:45;;;;;;;24.17;10.90;;;-1.80;99.90;;;;;;4953359;28;20058;-73
2023/03/01 07:35:11;;;;;;;23.77;10.68;;;-1.80;99.90;;;;;;4952732;28;20513;-76
2023/03/01 07:37:37;;;;;;;26.50;11.80;;;-1.70;99.90;;;;;;4952775;28;20043;-77
2023/03/01 07:40:03;;;;;;;26.58;12.35;;;-1.60;99.90;;;;;;4951513;29;20481;-77
2023/03/01 07:42:28;;;;;;;25.15;11.40;;;-1.50;99.90;;;;;;4953278;28;20086;-76
2023/03/01 07:44:54;;;;;;;36.30;13.32;;;-1.30;99.90;;;;;;4953369;28;20094;-76
2023/03/01 07:47:20;;;;;;;32.35;12.95;;;-1.20;99.90;;;;;;4953050;28;20051;-76
2023/03/01 07:49:45;;;;;;;34.67;12.55;;;-1.10;99.90;;;;;;4953268;28;20047;-77
2023/03/01 07:52:12;;;;;;;28.50;12.73;;;-1.00;99.90;;;;;;4952987;28;20051;-76
2023/03/01 07:54:38;;;;;;;29.17;12.75;;;-0.70;99.90;;;;;;4951572;29;20054;-76
2023/03/01 07:57:04;;;;;;;32.03;11.85;;;-0.80;99.90;;;;;;4953440;28;20098;-76
2023/03/01 07:59:29;;;;;;;29.83;12.02;;;-0.70;99.90;;;;;;4953089;28;20055;-76
2023/03/01 08:01:56;;;;;;;25.15;12.02;;;-0.70;99.90;;;;;;4953427;29;20047;-76
2023/03/01 08:04:24;;;;;;;29.48;12.77;;;-0.60;99.90;;;;;;4952275;28;20055;-76
2023/03/01 08:06:50;;;;;;;27.92;12.80;;;-0.40;99.90;;;;;;4953344;28;20374;-77
2023/03/01 08:09:17;;;;;;;27.60;12.20;;;-0.40;99.90;;;;;;4952322;28;20051;-77
2023/03/01 08:11:42;;;;;;;32.60;12.05;;;-0.20;99.90;;;;;;4953533;28;20493;-77
2023/03/01 08:14:08;;;;;;;30.42;11.65;;;-0.20;99.90;;;;;;4956002;29;20051;-77
2023/03/01 08:16:35;;;;;;;30.77;13.15;;;-0.10;99.90;;;;;;4956586;28;20043;-76
2023/03/01 08:19:11;;;;;;;26.30;11.02;;;0.20;99.90;;;;;;4956821;28;20091;-76
2023/03/01 08:21:37;;;;;;;23.77;10.90;;;0.10;99.90;;;;;;4955534;29;20456;-77
2023/03/01 08:24:03;;;;;;;;;;;0.20;99.90;;;;;;4956531;28;20280;-77
2023/03/01 08:26:29;;;;;;;25.57;10.53;;;0.30;99.90;;;;;;4956305;28;19922;-76
2023/03/01 08:28:55;;;;;;;25.55;11.93;;;0.30;99.90;;;;;;4956712;28;20381;-77
2023/03/01 08:31:24;;;;;;;21.92;10.73;;;0.40;99.90;;;;;;4956343;28;20579;-76
2023/03/01 08:33:57;;;;;;;24.50;10.82;;;1.00;99.90;;;;;;4956036;28;20141;-75
2023/03/01 08:36:28;;;;;;;27.42;10.60;;;0.60;99.90;;;;;;4955948;28;20150;-76
2023/03/01 08:38:55;;;;;;;26.77;11.52;;;0.70;99.90;;;;;;4955767;28;20492;-74
2023/03/01 08:41:20;;;;;;;;;;;0.80;99.90;;;;;;4957022;28;20051;-77
2023/03/01 08:43:46;;;;;;;24.20;10.32;;;0.90;99.90;;;;;;4956057;28;19929;-77
2023/03/01 08:46:12;;;;;;;22.80;10.07;;;1.00;99.90;;;;;;4955569;29;20048;-77
2023/03/01 08:48:40;;;;;;;23.65;10.13;;;1.10;99.90;;;;;;4955105;28;20078;-77
2023/03/01 08:51:19;;;;;;;20.90;9.45;;;1.20;99.90;;;;;;4955063;28;20058;-78
2023/03/01 08:53:45;;;;;;;18.40;8.63;;;1.30;99.90;;;;;;4954781;28;20047;-78
2023/03/01 08:56:11;;;;;;;;;;;1.40;99.90;;;;;;4956821;28;20412;-78
2023/03/01 08:58:39;;;;;;;18.58;8.02;;;1.60;99.90;;;;;;4955664;28;20017;-77
2023/03/01 09:01:09;;;;;;;20.25;8.15;;;1.80;99.90;;;;;;4954960;29;20101;-77
2023/03/01 09:03:35;;;;;;;15.23;5.90;;;1.70;99.90;;;;;;4955564;28;20058;-77
2023/03/01 09:06:03;;;;;;;14.77;5.30;;;1.90;99.90;;;;;;4955569;28;20050;-77
2023/03/01 09:08:29;;;;;;;10.80;5.05;;;2.30;99.90;;;;;;4953341;29;20416;-76
2023/03/01 09:10:55;;;;;;;;;;;2.40;99.90;;;;;;4956392;28;20382;-76
2023/03/01 09:13:23;;;;;;;10.48;5.03;;;2.50;99.90;;;;;;4955336;28;19930;-77
2023/03/01 09:15:49;;;;;;;9.68;3.88;;;2.60;99.90;;;;;;4955406;28;20051;-78
2023/03/01 09:18:15;;;;;;;10.07;3.35;;;2.80;99.90;;;;;;4955952;28;20079;-75
2023/03/01 09:20:41;;;;;;;10.57;3.70;;;2.90;99.90;;;;;;4955464;28;20051;-75
2023/03/01 09:23:07;;;;;;;7.78;3.45;;;3.00;99.90;;;;;;4953841;28;20052;-75
2023/03/01 09:25:34;;;;;;;7.03;3.50;;;3.20;99.90;;;;;;4955090;28;20047;-75
2023/03/01 09:28:00;;;;;;;7.00;2.70;;;3.40;99.90;;;;;;4955667;28;20051;-75
2023/03/01 09:30:26;;;;;;;6.78;2.42;;;3.70;99.90;;;;;;4954647;29;20057;-68
2023/03/01 09:32:52;;;;;;;8.63;2.70;;;3.80;99.90;;;;;;4953111;29;20047;-75
2023/03/01 09:35:19;;;;;;;7.47;2.70;;;4.00;99.90;;;;;;4937581;29;20055;-70
2023/03/01 09:37:45;;;;;;;5.85;2.75;;;4.30;99.90;;;;;;4953788;28;20153;-71
2023/03/01 09:40:18;;;;;;;6.15;2.60;;;4.40;99.90;;;;;;4954822;28;20087;-81
2023/03/01 09:42:50;;;;;;;6.63;2.63;;;4.60;99.90;;;;;;4953803;29;20051;-77
2023/03/01 09:45:36;;;;;;;5.93;2.90;;;4.70;99.90;;;;;;4955210;28;20044;-78
2023/03/01 09:48:03;;;;;;;5.50;2.43;;;4.80;99.90;;;;;;4955139;28;20259;-72
2023/03/01 09:50:38;;;;;;;6.60;2.80;;;4.90;99.90;;;;;;4955168;28;20059;-73
2023/03/01 09:53:14;;;;;;;6.80;2.40;;;5.00;99.90;;;;;;4953559;28;20114;-72
2023/03/01 09:55:48;;;;;;;7.43;3.03;;;5.10;99.90;;;;;;4954844;28;20178;-74
2023/03/01 09:58:28;;;;;;;6.15;2.92;;;5.20;99.90;;;;;;4955207;28;20051;-72
2023/03/01 10:00:59;;;;;;;4.57;2.63;;;5.20;99.90;;;;;;4954897;28;20651;-73
2023/03/01 10:03:45;;;;;;;7.72;2.67;;;5.30;99.90;;;;;;4954856;28;20183;-72
2023/03/01 10:06:17;;;;;;;8.93;2.80;;;5.40;99.90;;;;;;4954924;28;20047;-76
2023/03/01 10:08:52;;;;;;;6.47;2.72;;;5.40;99.90;;;;;;4953238;28;20055;-74
2023/03/01 10:11:30;;;;;;;5.90;2.10;;;5.40;99.90;;;;;;4954576;28;20472;-72
2023/03/01 10:14:06;;;;;;;6.88;2.85;;;5.60;99.90;;;;;;4954160;28;20051;-71
2023/03/01 10:16:54;;;;;;;6.53;2.70;;;5.70;99.90;;;;;;4954715;28;20043;-69
2023/03/01 10:19:51;;;;;;;6.30;1.90;;;5.70;99.90;;;;;;4954634;28;20110;-67
2023/03/01 10:22:24;;;;;;;4.75;2.10;;;5.90;99.90;;;;;;4954781;28;20059;-69
2023/03/01 10:24:52;;;;;;;6.95;2.70;;;5.90;99.90;;;;;;4953651;28;20408;-68
2023/03/01 10:27:50;;;;;;;4.70;2.15;;;6.00;99.90;;;;;;4954518;28;20098;-68
2023/03/01 10:30:38;;;;;;;5.38;2.22;;;6.10;99.90;;;;;;4957484;28;20098;-71
2023/03/01 10:33:16;;;;;;;9.07;2.20;;;6.20;99.90;;;;;;4952997;28;20117;-72
2023/03/01 10:35:42;;;;;;;3.17;2.03;;;6.40;99.90;;;;;;4953257;28;20511;-73
2023/03/01 10:38:11;;;;;;;14.70;2.53;;;6.60;99.90;;;;;;4953457;28;20047;-71
2023/03/01 10:40:52;;;;;;;4.90;2.10;;;6.70;99.90;;;;;;4954418;28;20043;-82
2023/03/01 10:43:18;;;;;;;5.72;2.67;;;6.80;97.20;;;;;;4954768;28;20051;-69
2023/03/01 10:45:44;;;;;;;4.75;2.25;;;6.90;99.90;;;;;;4953838;28;20043;-70
2023/03/01 10:48:24;;;;;;;5.88;2.20;;;6.90;99.90;;;;;;4954139;28;20130;-72
2023/03/01 10:50:58;;;;;;;8.20;2.30;;;7.00;97.00;;;;;;4953867;28;20396;-72
2023/03/01 10:53:37;;;;;;;5.00;2.30;;;7.10;99.90;;;;;;4953395;28;20063;-69
2023/03/01 10:56:14;;;;;;;6.65;2.75;;;7.20;99.40;;;;;;4953320;28;20050;-72
2023/03/01 10:58:56;;;;;;;6.13;2.60;;;7.30;99.90;;;;;;4952844;29;20043;-78
2023/03/01 11:01:21;;;;;;;5.80;2.50;;;7.40;98.70;;;;;;4954165;28;20051;-73
2023/03/01 11:04:05;;;;;;;7.32;2.80;;;7.50;99.80;;;;;;4953488;28;20054;-73
2023/03/01 11:06:32;;;;;;;5.53;2.42;;;7.60;99.90;;;;;;4953980;28;20139;-73
2023/03/01 11:09:12;;;;;;;;;;;7.70;99.90;;;;;;4951929;28;20082;-74
2023/03/01 11:11:38;;;;;;;7.25;2.65;;;7.90;94.10;;;;;;4954036;28;19969;-67
2023/03/01 11:14:26;;;;;;;8.27;3.28;;;8.10;95.80;;;;;;4952680;28;20078;-67
2023/03/01 11:17:03;;;;;;;8.77;3.30;;;8.10;91.00;;;;;;4953147;28;20054;-72
2023/03/01 11:19:29;;;;;;;9.27;3.88;;;8.30;90.60;;;;;;4953707;28;20055;-74
2023/03/01 11:21:57;;;;;;;6.85;2.72;;;8.40;94.50;;;;;;4953429;28;20054;-73
2023/03/01 11:24:42;;;;;;;8.98;3.30;;;8.50;94.40;;;;;;4952854;28;20051;-73
2023/03/01 11:27:14;;;;;;;7.82;3.47;;;8.80;90.40;;;;;;4953570;28;20043;-74
2023/03/01 11:29:46;;;;;;;11.15;3.97;;;9.50;90.00;;;;;;4953414;28;20058;-73
2023/03/01 11:32:14;;;;;;;12.13;3.80;;;10.00;84.20;;;;;;4953085;28;20489;-73
2023/03/01 11:35:01;;;;;;;7.35;3.10;;;10.40;85.00;;;;;;4953314;28;20047;-74
2023/03/01 11:37:52;;;;;;;7.75;3.60;;;10.80;77.80;;;;;;4951726;28;20051;-73
2023/03/01 11:40:42;;;;;;;9.27;3.70;;;11.30;77.80;;;;;;4952315;28;20141;-74
2023/03/01 11:43:22;;;;;;;6.53;2.90;;;11.80;76.90;;;;;;4952665;28;20742;-72
2023/03/01 11:46:02;;;;;;;11.35;2.88;;;12.50;68.70;;;;;;4952554;28;20070;-76
2023/03/01 11:48:43;;;;;;;7.65;3.08;;;13.10;74.70;;;;;;4956871;28;20066;-72
2023/03/01 11:51:23;;;;;;;6.65;3.25;;;13.60;68.40;;;;;;4956740;28;20558;-71
2023/03/01 11:54:27;;;;;;;7.10;3.67;;;13.90;69.50;;;;;;4955862;28;20134;-75
2023/03/01 11:57:14;;;;;;;10.27;3.42;;;14.40;65.80;;;;;;4964759;28;20055;-73
2023/03/01 11:59:40;;;;;;;;;;;14.40;68.50;;;;;;4957813;28;20043;-71
2023/03/01 12:02:14;;;;;;;6.80;3.17;;;14.60;60.80;;;;;;4956632;28;19923;-76
2023/03/01 12:05:09;;;;;;;9.43;3.20;;;14.80;65.40;;;;;;4956952;28;20055;-70
2023/03/01 12:07:41;;;;;;;6.15;3.20;;;14.80;59.10;;;;;;4956749;28;20051;-70
2023/03/01 12:10:22;;;;;;;11.05;3.85;;;14.60;65.00;;;;;;4956002;28;20043;-71
2023/03/01 12:13:19;;;;;;;7.82;3.50;;;14.50;62.00;;;;;;4957069;28;20058;-71
2023/03/01 12:16:04;;;;;;;5.95;3.22;;;14.70;59.00;;;;;;4956761;28;20099;-72
2023/03/01 12:18:44;;;;;;;6.10;3.30;;;15.50;57.70;;;;;;4954917;28;20393;-73
2023/03/01 12:21:35;;;;;;;6.38;2.80;;;16.10;59.20;;;;;;4955245;28;20079;-75
2023/03/01 12:24:16;;;;;;;7.45;3.50;;;16.40;55.30;;;;;;4954187;28;20047;-68
2023/03/01 12:27:02;;;;;;;6.07;2.70;;;16.60;62.50;;;;;;4955985;28;20146;-69
2023/03/01 12:30:06;;;;;;;6.57;3.28;;;16.40;59.50;;;;;;4956516;28;20047;-69
2023/03/01 12:32:32;;;;;;;9.20;3.20;;;16.60;59.00;;;;;;4956155;28;20047;-70
2023/03/01 12:35:09;;;;;;;7.80;3.67;;;16.80;62.50;;;;;;4955921;28;20401;-79
2023/03/01 12:37:46;;;;;;;6.90;3.03;;;17.00;62.20;;;;;;4955537;28;20055;-75
2023/03/01 12:40:49;;;;;;;6.60;3.45;;;17.30;58.80;;;;;;4955362;28;20071;-77
2023/03/01 12:43:33;;;;;;;5.68;2.97;;;17.70;54.00;;;;;;4955832;28;20611;-75
2023/03/01 12:46:14;;;;;;;5.78;2.90;;;17.70;52.40;;;;;;4956050;28;20094;-75
2023/03/01 12:48:53;;;;;;;6.45;3.50;;;17.40;55.10;;;;;;4956232;28;20047;-75
2023/03/01 12:51:24;;;;;;;7.32;2.92;;;17.70;56.70;;;;;;4955688;28;20102;-76
2023/03/01 12:53:53;;;;;;;8.52;3.67;;;18.10;55.60;;;;;;4954914;28;20055;-76
2023/03/01 12:56:25;;;;;;;9.57;3.42;;;18.00;54.20;;;;;;4955431;28;20039;-77
2023/03/01 12:58:54;;;;;;;7.50;3.53;;;18.00;52.30;;;;;;4954547;28;20090;-76
2023/03/01 13:01:46;;;;;;;11.70;3.78;;;17.70;53.80;;;;;;4954195;28;20504;-76